Bookmark and Share
Track history (hours):
 

Ilyas Efendiyev

Last reported at 2014-Apr-24 03:33 UTC. Time now 2014-Apr-24 04:03 UTC.
Position N 46°56' E 031°57'.

Length 140 m; draft 3.8 m.

Type: Cargo ship. MMSI: 215901000.

NotesDate/timePositionNaut miles runAvg speedWind from/ knotsBaromVisibWave heightAir tempDewpointWater temp
2014-Apr-24 03:33N 46°56' E 031°57'0 0.0
2014-Apr-24 02:34N 46°56' E 031°57'0 0.0
2014-Apr-24 01:34N 46°56' E 031°57'0 0.0
2014-Apr-24 00:33N 46°56' E 031°57'0 0.0
2014-Apr-23 23:34N 46°56' E 031°57'0 0.0
2014-Apr-23 22:33N 46°56' E 031°57'0 0.0
2014-Apr-23 21:34N 46°56' E 031°57'0 0.0
2014-Apr-23 20:33N 46°56' E 031°57'0 0.0
2014-Apr-23 19:33N 46°56' E 031°57'0 0.0
2014-Apr-23 18:33N 46°56' E 031°57'0 0.0
2014-Apr-23 17:34N 46°56' E 031°57'0 0.0
2014-Apr-23 16:34N 46°56' E 031°57'0 0.0
2014-Apr-23 15:33N 46°56' E 031°57'0 0.0
2014-Apr-23 14:34N 46°56' E 031°57'0 0.0
2014-Apr-23 13:34N 46°56' E 031°57'0 0.0
2014-Apr-23 12:33N 46°56' E 031°57'0 0.0
2014-Apr-23 11:34N 46°56' E 031°57'0 0.0
2014-Apr-23 10:33N 46°56' E 031°57'0 0.0
2014-Apr-23 09:27N 46°56' E 031°57'0 0.0
2014-Apr-23 08:33N 46°56' E 031°57'0 0.0
2014-Apr-23 07:33N 46°56' E 031°57'0 0.0
2014-Apr-23 06:34N 46°56' E 031°57'0 0.0
2014-Apr-23 05:34N 46°56' E 031°57'0 0.0
2014-Apr-23 04:33N 46°56' E 031°57'0 0.0
2014-Apr-23 03:33N 46°56' E 031°57'0 0.0
2014-Apr-23 02:33N 46°56' E 031°57'0 0.0
2014-Apr-23 01:33N 46°56' E 031°57'0 0.0
2014-Apr-23 00:34N 46°56' E 031°57'0 0.0
2014-Apr-22 23:34N 46°56' E 031°57'0 0.0
2014-Apr-22 22:34N 46°56' E 031°57'0 0.0
2014-Apr-22 21:33N 46°56' E 031°57'0 0.0
2014-Apr-22 20:33N 46°56' E 031°57'0 0.0
2014-Apr-22 19:34N 46°56' E 031°57'0 0.0
2014-Apr-22 18:33N 46°56' E 031°57'0 0.0
2014-Apr-22 17:34N 46°56' E 031°57'0 0.0
2014-Apr-22 16:33N 46°56' E 031°57'0 0.0
2014-Apr-22 15:34N 46°56' E 031°57'0 0.0
2014-Apr-22 14:33N 46°56' E 031°57'0 0.0
2014-Apr-22 13:34N 46°56' E 031°57'0 0.0
2014-Apr-22 12:34N 46°56' E 031°57'0 0.0
2014-Apr-22 11:34N 46°56' E 031°57'0 0.2
2014-Apr-22 10:34N 46°56' E 031°57'2 1.7
2014-Apr-22 09:33N 46°56' E 031°60'8 7.7
2014-Apr-22 08:34N 46°49' E 031°55'9 8.6
2014-Apr-22 07:33N 46°41' E 031°56'9 8.7
2014-Apr-22 06:33N 46°36' E 031°46'9 9.4
2014-Apr-22 05:33N 46°35' E 031°32'9 8.5
2014-Apr-22 04:33N 46°35' E 031°20'17 7.1
2014-Apr-22 02:08N 46°27' E 030°57'1 1.1
2014-Apr-22 01:24N 46°27' E 030°58'  
2014-Apr-17 07:28N 37°28' E 025°53'7 7.2
2014-Apr-17 06:28N 37°24' E 026°01'7 7.5
2014-Apr-17 05:32N 37°21' E 026°09'7 7.3
2014-Apr-17 04:32N 37°17' E 026°17'7 7.4
2014-Apr-17 03:32N 37°13' E 026°24'  

Dump ship's entire track history

sailing weather and tide predictions

Ilyas Efendiyev — 9HES8 — position and weather